createdAt,value
2022-09-01T00:00:15.292Z,100101.50
2022-09-01T00:02:44.092Z,100093.25
2022-09-01T00:05:13.091Z,100103.31
2022-09-01T00:07:40.494Z,100095.25
2022-09-01T00:10:08.996Z,100093.44
2022-09-01T00:12:37.858Z,100077.84
2022-09-01T00:15:07.244Z,100092.94
2022-09-01T00:17:34.832Z,100089.84
2022-09-01T00:20:02.352Z,100096.63
2022-09-01T00:22:30.013Z,100091.53
2022-09-01T00:24:57.348Z,100095.28
2022-09-01T00:27:27.928Z,100099.53
2022-09-01T00:29:59.272Z,100097.56
2022-09-01T00:32:27.788Z,100101.00
2022-09-01T00:34:55.132Z,100089.63
2022-09-01T00:37:22.439Z,100096.44
2022-09-01T00:39:49.694Z,100090.75
2022-09-01T00:42:17.265Z,100088.75
2022-09-01T00:44:44.654Z,100080.41
2022-09-01T00:47:14.849Z,100084.75
2022-09-01T00:49:45.737Z,100079.31
2022-09-01T00:52:16.064Z,100079.44
2022-09-01T00:54:51.135Z,100078.38
2022-09-01T00:57:18.772Z,100062.19
2022-09-01T01:00:06.891Z,100071.50
2022-09-01T01:02:34.273Z,100068.03
2022-09-01T01:05:03.073Z,100065.59
2022-09-01T01:07:30.429Z,100066.84
2022-09-01T01:09:57.987Z,100079.66
2022-09-01T01:12:28.205Z,100075.00
2022-09-01T01:14:57.304Z,100063.38
2022-09-01T01:17:25.703Z,100070.34
2022-09-01T01:20:17.021Z,100064.88
2022-09-01T01:23:02.504Z,100058.94
2022-09-01T01:25:34.014Z,100057.44
2022-09-01T01:28:18.750Z,100058.09
2022-09-01T01:31:01.825Z,100042.44
2022-09-01T01:33:35.445Z,100050.38
2022-09-01T01:36:03.887Z,100047.63
2022-09-01T01:38:31.879Z,100042.31
2022-09-01T01:41:00.293Z,100027.31
2022-09-01T01:43:29.280Z,100035.63
2022-09-01T01:46:02.962Z,100028.84
2022-09-01T01:48:41.334Z,100031.44
2022-09-01T01:51:10.798Z,100031.53
2022-09-01T01:53:39.208Z,100029.00
2022-09-01T01:56:09.254Z,100027.47
2022-09-01T01:58:37.509Z,100031.38
2022-09-01T02:01:12.994Z,100041.50
2022-09-01T02:03:41.127Z,100044.16
2022-09-01T02:06:12.291Z,100036.69
2022-09-01T02:08:42.406Z,100030.31
2022-09-01T02:11:10.052Z,100023.38
2022-09-01T02:13:37.406Z,100030.06
2022-09-01T02:16:13.300Z,100023.91
2022-09-01T02:18:48.359Z,100022.00
2022-09-01T02:21:22.131Z,100023.25
2022-09-01T02:24:02.535Z,100004.09
2022-09-01T02:26:39.899Z,100023.03
2022-09-01T02:29:18.235Z,100017.78
2022-09-01T02:31:48.369Z,100020.38
2022-09-01T02:34:17.344Z,100018.00
2022-09-01T02:36:49.468Z,100024.84
2022-09-01T02:39:26.766Z,100025.75
2022-09-01T02:41:54.900Z,100017.88
2022-09-01T02:44:28.080Z,100026.25
2022-09-01T02:46:56.281Z,100015.84
2022-09-01T02:49:28.447Z,100012.81
2022-09-01T02:51:59.785Z,100018.00
2022-09-01T02:54:28.975Z,100020.09
2022-09-01T02:56:56.871Z,100027.94
2022-09-01T02:59:29.044Z,100016.38
2022-09-01T03:02:01.306Z,100024.44
2022-09-01T03:04:35.322Z,100024.53
2022-09-01T03:07:07.416Z,100010.84
2022-09-01T03:09:35.682Z,100022.41
2022-09-01T03:12:04.159Z,100028.97
2022-09-01T03:14:32.371Z,100026.13
2022-09-01T03:17:01.128Z,100029.91
2022-09-01T03:19:32.830Z,100032.31
2022-09-01T03:22:13.498Z,100038.06
2022-09-01T03:24:44.768Z,100030.78
2022-09-01T03:27:12.254Z,100038.44
2022-09-01T03:29:41.089Z,100038.25
2022-09-01T03:32:09.532Z,100039.41
2022-09-01T03:34:39.785Z,100038.34
2022-09-01T03:37:10.000Z,100042.06
2022-09-01T03:39:38.892Z,100033.53
2022-09-01T03:42:09.433Z,100045.41
2022-09-01T03:44:42.969Z,100006.91
2022-09-01T03:47:15.569Z,100049.16
2022-09-01T03:49:45.714Z,100049.34
2022-09-01T03:52:13.682Z,100045.44
2022-09-01T03:54:41.106Z,100049.41
2022-09-01T03:57:10.290Z,100049.19
2022-09-01T03:59:45.485Z,100050.69
2022-09-01T04:02:13.414Z,100046.13
2022-09-01T04:04:40.935Z,100045.06
2022-09-01T04:07:08.322Z,100047.47
2022-09-01T04:09:37.450Z,100044.94
2022-09-01T04:12:08.383Z,100041.06
2022-09-01T04:14:44.841Z,100051.00
2022-09-01T04:17:30.739Z,100059.13
2022-09-01T04:19:58.523Z,100052.91
2022-09-01T04:22:31.351Z,100050.00
2022-09-01T04:25:02.421Z,100055.66
2022-09-01T04:27:30.097Z,100059.75
2022-09-01T04:29:57.887Z,100061.66
2022-09-01T04:32:33.766Z,100056.25
2022-09-01T04:35:05.543Z,100053.09
2022-09-01T04:37:33.136Z,100041.09
2022-09-01T04:40:03.970Z,100048.25
2022-09-01T04:42:32.838Z,100047.69
2022-09-01T04:45:10.761Z,100046.44
2022-09-01T04:47:45.686Z,100042.91
2022-09-01T04:50:19.563Z,100035.44
2022-09-01T04:53:07.235Z,100041.91
2022-09-01T04:55:49.842Z,100039.69
2022-09-01T04:58:20.939Z,100039.31
2022-09-01T05:00:52.566Z,100033.59
2022-09-01T05:03:24.784Z,100026.91
2022-09-01T05:06:01.433Z,100037.66
2022-09-01T05:08:29.372Z,100029.53
2022-09-01T05:11:09.947Z,100032.75
2022-09-01T05:13:39.907Z,100029.06
2022-09-01T05:16:13.519Z,100040.00
2022-09-01T05:18:49.151Z,100005.81
2022-09-01T05:21:22.504Z,100034.94
2022-09-01T05:23:52.054Z,100023.97
2022-09-01T05:26:27.142Z,100021.13
2022-09-01T05:29:00.172Z,100021.56
2022-09-01T05:31:35.252Z,100020.00
2022-09-01T05:34:05.053Z,100019.25
2022-09-01T05:36:33.942Z,100027.72
2022-09-01T05:39:05.655Z,100026.66
2022-09-01T05:41:36.052Z,100030.69
2022-09-01T05:44:07.327Z,100027.59
2022-09-01T05:46:38.004Z,100029.19
2022-09-01T05:49:08.647Z,100034.81
2022-09-01T05:51:45.618Z,100016.63
2022-09-01T05:54:15.047Z,100037.56
2022-09-01T05:56:44.894Z,100037.97
2022-09-01T05:59:24.927Z,100027.44
2022-09-01T06:02:00.788Z,100035.00
2022-09-01T06:04:31.427Z,100033.75
2022-09-01T06:07:10.250Z,100033.56
2022-09-01T06:09:48.782Z,100024.19
2022-09-01T06:12:24.116Z,100020.34
2022-09-01T06:14:54.316Z,100023.84
2022-09-01T06:17:25.536Z,100016.63
2022-09-01T06:19:56.494Z,100007.09
2022-09-01T06:22:26.708Z,99971.66
2022-09-01T06:24:59.452Z,100001.16
2022-09-01T06:27:34.446Z,100003.94
2022-09-01T06:30:03.263Z,100004.91
2022-09-01T06:32:39.114Z,99998.94
2022-09-01T06:35:09.445Z,100006.56
2022-09-01T06:37:40.920Z,100006.00
2022-09-01T06:40:17.463Z,100011.28
2022-09-01T06:42:51.241Z,100005.56
2022-09-01T06:45:21.612Z,100003.28
2022-09-01T06:47:51.364Z,100012.50
2022-09-01T06:53:39.264Z,100012.91
2022-09-01T06:56:15.290Z,100013.31
2022-09-01T06:58:47.794Z,100010.19
2022-09-01T07:01:19.843Z,100004.38
2022-09-01T07:03:54.065Z,100015.44
2022-09-01T07:09:46.264Z,100004.97
2022-09-01T07:16:32.089Z,100007.03
2022-09-01T07:18:25.923Z,99987.28
2022-09-01T07:24:08.058Z,99995.34
2022-09-01T07:26:45.387Z,100000.50
2022-09-01T07:29:15.452Z,99994.25
2022-09-01T07:32:41.193Z,99993.78
2022-09-01T07:34:40.135Z,100000.94
2022-09-01T07:45:58.827Z,99974.41
2022-09-01T07:51:37.242Z,99995.72
2022-09-01T07:54:06.954Z,99992.94
2022-09-01T07:56:39.491Z,99993.41
2022-09-01T07:59:14.561Z,99991.88
2022-09-01T08:02:17.914Z,99981.94
2022-09-01T08:04:47.636Z,99989.72
2022-09-01T08:07:16.592Z,99984.50
2022-09-01T08:09:44.849Z,99987.78
2022-09-01T08:12:14.376Z,99980.00
2022-09-01T08:16:06.782Z,99976.09
2022-09-01T08:17:52.100Z,99984.72
2022-09-01T08:20:22.270Z,99982.78
2022-09-01T08:22:57.212Z,99984.13
2022-09-01T08:25:32.952Z,99983.97
2022-09-01T08:28:02.616Z,99972.66
2022-09-01T08:30:32.882Z,99971.31
2022-09-01T08:33:10.233Z,99961.56
2022-09-01T08:35:40.905Z,99958.44
2022-09-01T08:38:09.586Z,99969.66
2022-09-01T08:40:38.415Z,99958.75
2022-09-01T08:43:41.067Z,99978.84
2022-09-01T08:46:35.313Z,99973.81
2022-09-01T08:49:26.630Z,99964.84
2022-09-01T08:52:45.020Z,99954.59
2022-09-01T08:55:26.252Z,99965.28
2022-09-01T08:57:59.921Z,99951.06
2022-09-01T09:00:30.699Z,99955.28
2022-09-01T09:03:40.504Z,99961.59
2022-09-01T09:06:17.278Z,99957.38
2022-09-01T09:08:58.919Z,99929.34
2022-09-01T09:12:04.475Z,99925.34
2022-09-01T09:14:53.160Z,99964.91
2022-09-01T09:17:28.210Z,99957.47
2022-09-01T09:19:56.827Z,99964.94
2022-09-01T09:22:24.135Z,99964.72
2022-09-01T09:25:10.193Z,99954.75
2022-09-01T09:27:39.302Z,99948.84
2022-09-01T09:30:13.628Z,99946.63
2022-09-01T09:35:46.198Z,99925.19
2022-09-01T09:38:21.768Z,99944.69
2022-09-01T09:41:16.445Z,99943.84
2022-09-01T09:44:20.508Z,99951.63
2022-09-01T09:46:50.552Z,99941.06
2022-09-01T09:49:42.214Z,99937.03
2022-09-01T09:52:19.446Z,99929.75
2022-09-01T09:55:22.713Z,99923.84
2022-09-01T09:57:59.288Z,99918.28
2022-09-01T10:00:39.324Z,99913.13
2022-09-01T10:03:15.826Z,99910.72
2022-09-01T10:05:46.111Z,99907.09
2022-09-01T10:08:37.883Z,99907.16
2022-09-01T10:11:08.312Z,99901.84
2022-09-01T10:13:37.023Z,99896.81
2022-09-01T10:16:32.493Z,99899.88
2022-09-01T10:19:02.716Z,99890.06
2022-09-01T10:21:35.893Z,99898.75
2022-09-01T10:24:44.690Z,99898.16
2022-09-01T10:27:35.896Z,99899.31
2022-09-01T10:30:21.263Z,99888.94
2022-09-01T10:32:55.242Z,99887.25
2022-09-01T10:35:34.419Z,99888.06
2022-09-01T10:38:08.309Z,99878.94
2022-09-01T10:40:50.119Z,99884.63
2022-09-01T10:43:41.948Z,99883.19
2022-09-01T10:46:25.924Z,99879.47
2022-09-01T10:49:04.395Z,99868.34
2022-09-01T10:54:45.243Z,99872.41
2022-09-01T10:57:26.788Z,99874.13
2022-09-01T11:06:12.633Z,99845.34
2022-09-01T11:08:50.997Z,99852.56
2022-09-01T11:11:48.016Z,99852.22
2022-09-01T11:14:23.109Z,99850.09
2022-09-01T11:17:14.581Z,99854.81
2022-09-01T11:20:06.485Z,99859.44
2022-09-01T11:22:41.217Z,99849.56
2022-09-01T11:25:41.511Z,99855.66
2022-09-01T11:28:31.869Z,99860.72
2022-09-01T11:31:09.003Z,99856.00
2022-09-01T11:34:02.078Z,99840.31
2022-09-01T11:36:38.044Z,99833.88
2022-09-01T11:39:07.562Z,99843.09
2022-09-01T11:41:59.692Z,99844.47
2022-09-01T11:44:55.287Z,99833.22
2022-09-01T11:47:27.571Z,99836.09
2022-09-01T11:49:59.837Z,99831.31
2022-09-01T11:52:32.421Z,99833.88
2022-09-01T11:55:00.248Z,99832.09
2022-09-01T11:57:30.694Z,99838.34
2022-09-01T12:00:00.419Z,99828.47
2022-09-01T12:02:33.861Z,99833.22
2022-09-01T12:05:25.888Z,99828.59
2022-09-01T12:07:54.460Z,99833.59
2022-09-01T12:10:27.797Z,99833.47
2022-09-01T12:13:07.477Z,99828.59
2022-09-01T12:15:46.432Z,99838.09
2022-09-01T12:18:28.154Z,99841.16
2022-09-01T12:20:58.527Z,99843.53
2022-09-01T12:23:29.547Z,99843.75
2022-09-01T12:26:05.588Z,99833.59
2022-09-01T12:28:35.632Z,99847.03
2022-09-01T12:31:07.634Z,99843.63
2022-09-01T12:33:37.296Z,99840.97
2022-09-01T12:36:17.592Z,99846.38
2022-09-01T12:38:44.902Z,99830.94
2022-09-01T12:41:31.795Z,99842.47
2022-09-01T12:44:31.722Z,99844.75
2022-09-01T12:47:04.467Z,99832.97
2022-09-01T12:49:37.145Z,99846.38
2022-09-01T12:52:26.633Z,99847.09
2022-09-01T12:54:58.774Z,99844.22
2022-09-01T12:57:48.792Z,99850.91
2022-09-01T13:00:25.229Z,99855.50
2022-09-01T13:05:41.868Z,99842.59
2022-09-01T13:08:15.145Z,99848.16
2022-09-01T13:10:54.276Z,99844.53
2022-09-01T13:13:24.575Z,99830.16
2022-09-01T13:15:55.040Z,99841.41
2022-09-01T13:18:24.243Z,99840.59
2022-09-01T13:20:53.480Z,99835.72
2022-09-01T13:23:21.852Z,99840.78
2022-09-01T13:25:50.073Z,99840.66
2022-09-01T13:28:18.736Z,99837.75
2022-09-01T13:31:28.524Z,99834.06
2022-09-01T13:36:46.222Z,99834.59
2022-09-01T13:39:15.713Z,99836.03
2022-09-01T13:41:43.598Z,99829.22
2022-09-01T13:44:11.426Z,99820.00
2022-09-01T13:49:44.952Z,99829.50
2022-09-01T13:52:14.971Z,99829.22
2022-09-01T13:54:44.601Z,99822.38
2022-09-01T13:57:12.474Z,99820.03
2022-09-01T13:59:42.134Z,99835.75
2022-09-01T14:02:10.674Z,99833.06
2022-09-01T14:04:38.336Z,99829.91
2022-09-01T14:07:06.341Z,99840.25
2022-09-01T14:09:33.874Z,99833.72
2022-09-01T14:12:01.409Z,99826.00
2022-09-01T14:17:18.244Z,99851.56
2022-09-01T14:19:51.908Z,99849.94
2022-09-01T14:22:19.384Z,99846.75
2022-09-01T14:24:46.836Z,99818.88
2022-09-01T14:27:14.227Z,99840.06
2022-09-01T14:32:11.171Z,99838.56
2022-09-01T14:34:39.860Z,99846.06
2022-09-01T14:37:07.629Z,99821.94
2022-09-01T14:39:34.951Z,99845.31
2022-09-01T14:42:02.282Z,99851.53
2022-09-01T14:44:29.621Z,99840.31
2022-09-01T14:46:57.388Z,99789.13
2022-09-01T14:49:33.219Z,99827.13
2022-09-01T14:52:17.853Z,99832.84
2022-09-01T14:54:45.635Z,99833.84
2022-09-01T14:57:36.646Z,99829.75
2022-09-01T15:00:02.060Z,99834.19
2022-09-01T15:02:29.474Z,99832.06
2022-09-01T15:04:57.191Z,99820.00
2022-09-01T15:07:24.655Z,99824.50
2022-09-01T15:09:54.331Z,99807.34
2022-09-01T15:12:22.694Z,99804.09
2022-09-01T15:14:53.070Z,99794.94
2022-09-01T15:17:20.425Z,99795.78
2022-09-01T15:19:47.797Z,99798.09
2022-09-01T15:22:16.731Z,99791.94
2022-09-01T15:24:45.525Z,99787.44
2022-09-01T15:27:13.067Z,99784.84
2022-09-01T15:29:48.028Z,99793.56
2022-09-01T15:32:27.613Z,99792.97
2022-09-01T15:34:56.650Z,99784.38
2022-09-01T15:37:24.120Z,99796.75
2022-09-01T15:39:51.614Z,99788.97
2022-09-01T15:42:19.223Z,99786.13
2022-09-01T15:44:47.607Z,99799.47
2022-09-01T15:47:16.337Z,99780.78
2022-09-01T15:49:43.956Z,99791.34
2022-09-01T15:52:11.399Z,99800.66
2022-09-01T15:54:40.123Z,99814.41
2022-09-01T15:57:09.223Z,99821.56
2022-09-01T15:59:41.211Z,99822.66
2022-09-01T16:02:10.654Z,99820.13
2022-09-01T16:04:39.181Z,99813.72
2022-09-01T16:07:06.604Z,99813.59
2022-09-01T16:09:34.220Z,99818.97
2022-09-01T16:12:01.733Z,99825.44
2022-09-01T16:14:31.939Z,99815.94
2022-09-01T16:17:06.276Z,99835.41
2022-09-01T16:20:05.696Z,99846.84
2022-09-01T16:22:50.062Z,99832.13
2022-09-01T16:25:35.757Z,99851.56
2022-09-01T16:28:36.014Z,99844.16
2022-09-01T16:31:14.266Z,99859.03
2022-09-01T16:33:56.598Z,99858.09
2022-09-01T16:36:27.099Z,99860.03
2022-09-01T16:39:16.548Z,99850.84
2022-09-01T16:42:13.664Z,99852.38
2022-09-01T16:44:54.279Z,99842.13
2022-09-01T16:47:42.639Z,99852.81
2022-09-01T16:50:37.792Z,99856.50
2022-09-01T16:53:11.862Z,99850.72
2022-09-01T16:55:46.450Z,99849.03
2022-09-01T16:58:13.727Z,99861.31
2022-09-01T17:00:59.123Z,99858.09
2022-09-01T17:04:02.171Z,99847.94
2022-09-01T17:06:34.385Z,99831.75
2022-09-01T17:09:29.909Z,99852.31
2022-09-01T17:12:28.457Z,99845.34
2022-09-01T17:15:05.460Z,99847.13
2022-09-01T17:17:53.238Z,99844.22
2022-09-01T17:20:28.836Z,99848.63
2022-09-01T17:23:00.909Z,99853.31
2022-09-01T17:25:33.189Z,99861.41
2022-09-01T17:28:17.014Z,99859.31
2022-09-01T17:31:14.636Z,99859.78
2022-09-01T17:33:57.039Z,99868.69
2022-09-01T17:36:46.123Z,99868.69
2022-09-01T17:39:17.138Z,99873.31
2022-09-01T17:41:54.935Z,99867.47
2022-09-01T17:44:25.154Z,99880.19
2022-09-01T17:47:12.900Z,99890.31
2022-09-01T17:50:21.847Z,99875.03
2022-09-01T17:53:33.839Z,99881.81
2022-09-01T17:56:14.894Z,99889.91
2022-09-01T17:59:17.554Z,99894.72
2022-09-01T18:01:55.134Z,99893.44
2022-09-01T18:04:42.644Z,99886.22
2022-09-01T18:07:31.352Z,99893.44
2022-09-01T18:10:02.827Z,99899.50
2022-09-01T18:12:35.949Z,99894.13
2022-09-01T18:15:13.839Z,99902.13
2022-09-01T18:17:47.098Z,99909.94
2022-09-01T18:20:24.940Z,99914.69
2022-09-01T18:23:12.532Z,99926.00
2022-09-01T18:25:51.276Z,99945.97
2022-09-01T18:28:19.802Z,99954.88
2022-09-01T18:31:07.928Z,99947.81
2022-09-01T18:33:47.128Z,99965.47
2022-09-01T18:36:26.445Z,99971.00
2022-09-01T18:39:09.695Z,99983.31
2022-09-01T18:42:04.821Z,99985.44
2022-09-01T18:45:06.497Z,99987.97
2022-09-01T18:47:37.903Z,99991.81
2022-09-01T18:50:18.525Z,100000.34
2022-09-01T18:53:12.798Z,99989.97
2022-09-01T18:56:06.245Z,99982.16
2022-09-01T18:58:53.478Z,99999.22
2022-09-01T19:01:33.244Z,100009.03
2022-09-01T19:04:15.425Z,100011.13
2022-09-01T19:07:14.936Z,100014.53
2022-09-01T19:09:46.206Z,100012.59
2022-09-01T19:12:42.504Z,100021.28
2022-09-01T19:15:15.864Z,100023.81
2022-09-01T19:18:10.224Z,100034.59
2022-09-01T19:20:53.215Z,100029.72
2022-09-01T19:23:20.640Z,100026.69
2022-09-01T19:25:50.569Z,100022.81
2022-09-01T19:28:45.675Z,100041.19
2022-09-01T19:31:19.341Z,100052.28
2022-09-01T19:34:05.642Z,100060.78
2022-09-01T19:36:42.909Z,100054.59
2022-09-01T19:39:16.175Z,100061.13
2022-09-01T19:41:52.604Z,100060.09
2022-09-01T19:44:29.239Z,100058.47
2022-09-01T19:47:08.260Z,100064.81
2022-09-01T19:49:51.556Z,100062.56
2022-09-01T19:52:32.652Z,100066.34
2022-09-01T19:55:17.356Z,100073.28
2022-09-01T19:58:09.146Z,100065.31
2022-09-01T20:00:56.632Z,100055.38
2022-09-01T20:03:38.677Z,100050.91
2022-09-01T20:06:08.404Z,100049.03
2022-09-01T20:08:42.026Z,100051.00
2022-09-01T20:11:29.763Z,100054.25
2022-09-01T20:14:07.832Z,100047.31
2022-09-01T20:16:42.735Z,100034.22
2022-09-01T20:19:32.758Z,100030.25
2022-09-01T20:22:14.219Z,100026.00
2022-09-01T20:24:41.989Z,100041.88
2022-09-01T20:27:35.060Z,100039.63
2022-09-01T20:30:17.074Z,100038.66
2022-09-01T20:33:20.366Z,100038.59
2022-09-01T20:35:56.633Z,100044.53
2022-09-01T20:39:13.326Z,100041.34
2022-09-01T20:41:49.429Z,100039.44
2022-09-01T20:44:33.373Z,100011.31
2022-09-01T20:47:00.882Z,100008.28
2022-09-01T20:49:28.376Z,100001.69
2022-09-01T20:52:07.560Z,99980.09
2022-09-01T20:54:46.831Z,99987.03
2022-09-01T20:57:43.237Z,99981.16
2022-09-01T21:00:15.688Z,99986.06
2022-09-01T21:03:18.417Z,99985.69
2022-09-01T21:06:30.552Z,99983.81
2022-09-01T21:09:15.681Z,99986.09
2022-09-01T21:11:50.856Z,99973.47
2022-09-01T21:14:37.039Z,99973.59
2022-09-01T21:17:20.863Z,99967.19
2022-09-01T21:20:14.252Z,99946.84
2022-09-01T21:22:41.716Z,99960.66
2022-09-01T21:25:11.417Z,99937.22
2022-09-01T21:27:45.956Z,99931.06
2022-09-01T21:30:16.271Z,99950.91
2022-09-01T21:32:44.144Z,99939.97
2022-09-01T21:35:14.953Z,99935.25
2022-09-01T21:37:42.351Z,99935.13
2022-09-01T21:40:11.571Z,99927.59
2022-09-01T21:42:40.795Z,99928.25
2022-09-01T21:45:12.328Z,99912.97
2022-09-01T21:47:41.148Z,99929.34
2022-09-01T21:50:09.716Z,99928.91
2022-09-01T21:52:36.991Z,99924.97
2022-09-01T21:55:05.541Z,99912.59
2022-09-01T21:57:32.814Z,99916.78
2022-09-01T22:00:14.493Z,99912.66
2022-09-01T22:02:46.530Z,99889.66
2022-09-01T22:05:14.598Z,99908.59
2022-09-01T22:07:45.621Z,99895.63
2022-09-01T22:10:18.123Z,99904.72
2022-09-01T22:12:47.484Z,99893.97
2022-09-01T22:15:19.406Z,99900.91
2022-09-01T22:17:47.619Z,99900.59
2022-09-01T22:20:19.356Z,99892.28
2022-09-01T22:22:47.427Z,99885.53
2022-09-01T22:25:19.595Z,99887.28
2022-09-01T22:27:47.428Z,99882.41
2022-09-01T22:30:15.748Z,99879.19
2022-09-01T22:32:45.636Z,99866.22
2022-09-01T22:35:16.392Z,99871.13
2022-09-01T22:37:43.988Z,99873.72
2022-09-01T22:40:12.799Z,99869.88
2022-09-01T22:42:40.308Z,99873.28
2022-09-01T22:45:10.077Z,99858.13
2022-09-01T22:47:39.678Z,99883.47
2022-09-01T22:50:11.288Z,99877.47
2022-09-01T22:52:51.918Z,99873.78
2022-09-01T22:55:19.927Z,99872.78
2022-09-01T22:57:47.413Z,99875.25
2022-09-01T23:00:15.168Z,99872.66
2022-09-01T23:02:42.522Z,99878.63
2022-09-01T23:05:10.207Z,99881.31
2022-09-01T23:07:39.586Z,99885.94
2022-09-01T23:10:09.038Z,99874.97
2022-09-01T23:12:36.362Z,99858.66
2022-09-01T23:15:04.633Z,99870.50
2022-09-01T23:17:33.704Z,99879.34
2022-09-01T23:20:02.549Z,99876.34
2022-09-01T23:22:31.437Z,99880.16
2022-09-01T23:25:00.007Z,99884.59
2022-09-01T23:27:27.309Z,99876.59
2022-09-01T23:29:55.397Z,99890.34
2022-09-01T23:32:22.943Z,99876.66
2022-09-01T23:34:52.348Z,99887.50
2022-09-01T23:37:20.121Z,99887.44
2022-09-01T23:39:47.473Z,99883.28
2022-09-01T23:42:14.775Z,99869.78
2022-09-01T23:44:43.169Z,99880.78
2022-09-01T23:47:10.780Z,99875.34
2022-09-01T23:49:41.924Z,99860.34
2022-09-01T23:52:11.694Z,99869.41
2022-09-01T23:54:39.124Z,99858.00
2022-09-01T23:57:06.685Z,99857.63
2022-09-01T23:59:34.055Z,99859.78
